Time;durP1;ratioP1;P1;durP2;ratioP2;P2;SDS_P1;SDS_P2;PMS_P1;PMS_P2;Temp;Humidity;BMP_temperature;BMP_pressure;BME280_temperature;BME280_humidity;BME280_pressure;Samples;Min_cycle;Max_cycle;Signal;HPM_P1;HPM_P2
2021/07/10 00:02:22;;;;;;;0.45;0.20;;;;;;;22.23;69.12;100085.38;4890580;29;20048;-80
2021/07/10 00:04:48;;;;;;;0.22;0.10;;;;;;;22.21;69.21;100087.53;4875188;29;20055;-76
2021/07/10 00:07:14;;;;;;;0.10;0.10;;;;;;;22.16;69.33;100082.69;4877551;29;20048;-74
2021/07/10 00:09:40;;;;;;;0.10;0.10;;;;;;;22.14;69.21;100087.53;4889169;29;20052;-75
2021/07/10 00:12:06;;;;;;;0.20;0.20;;;;;;;22.14;69.15;100088.38;4886951;29;20040;-77
2021/07/10 00:14:32;;;;;;;0.70;0.30;;;;;;;22.16;68.92;100085.44;4891662;29;20040;-78
2021/07/10 00:16:58;;;;;;;0.30;0.20;;;;;;;22.15;68.83;100084.56;4892824;29;20146;-76
2021/07/10 00:19:24;;;;;;;0.10;0.10;;;;;;;22.15;68.83;100083.72;4870194;29;20056;-75
2021/07/10 00:21:51;;;;;;;0.10;0.10;;;;;;;22.08;68.78;100080.94;4892153;29;20044;-75
2021/07/10 00:24:17;;;;;;;0.10;0.10;;;;;;;22.05;68.53;100089.66;4891638;29;20067;-76
2021/07/10 00:26:44;;;;;;;0.20;0.10;;;;;;;21.96;69.16;100079.94;4890503;29;20083;-74
2021/07/10 00:29:10;;;;;;;0.38;0.10;;;;;;;21.91;69.12;100088.84;4904512;29;20045;-74
2021/07/10 00:31:36;;;;;;;0.10;0.10;;;;;;;21.89;69.67;100090.94;4891527;29;20384;-74
2021/07/10 00:34:02;;;;;;;0.10;0.10;;;;;;;21.86;69.77;100085.84;4890631;29;20032;-74
2021/07/10 00:36:27;;;;;;;0.30;0.10;;;;;;;21.85;69.63;100084.19;4885672;29;20048;-77
2021/07/10 00:38:53;;;;;;;0.10;0.10;;;;;;;21.77;70.38;100081.66;4891066;29;20067;-76
2021/07/10 00:41:19;;;;;;;0.10;0.10;;;;;;;21.78;70.22;100082.50;4906443;29;20496;-74
2021/07/10 00:43:49;;;;;;;0.15;0.10;;;;;;;21.78;70.47;100083.34;4886916;29;20138;-75
2021/07/10 00:46:22;;;;;;;0.10;0.10;;;;;;;21.76;70.35;100085.47;4887451;29;20392;-75
2021/07/10 00:48:48;;;;;;;0.10;0.10;;;;;;;21.73;70.29;100091.41;4890132;29;20379;-76
2021/07/10 00:51:15;;;;;;;0.10;0.10;;;;;;;21.67;70.39;100086.75;4868378;29;20515;-76
2021/07/10 00:53:41;;;;;;;0.20;0.20;;;;;;;21.63;70.81;100088.22;4880898;29;20064;-76
2021/07/10 00:56:07;;;;;;;0.10;0.10;;;;;;;21.59;70.67;100090.56;4878738;29;20507;-75
2021/07/10 00:58:34;;;;;;;0.10;0.10;;;;;;;21.57;71.04;100091.81;4883537;29;20396;-76
2021/07/10 01:01:01;;;;;;;0.10;0.10;;;;;;;21.54;70.89;100086.78;4884221;29;20043;-75
2021/07/10 01:03:31;;;;;;;0.10;0.10;;;;;;;21.56;70.92;100090.13;4871040;29;20053;-74
2021/07/10 01:05:56;;;;;;;0.10;0.10;;;;;;;21.57;70.97;100095.44;4885884;29;20180;-74
2021/07/10 01:08:22;;;;;;;0.20;0.10;;;;;;;21.58;70.61;100099.88;4889836;29;20135;-75
2021/07/10 01:10:49;;;;;;;0.10;0.10;;;;;;;21.57;70.91;100094.56;4887676;29;20518;-75
2021/07/10 01:13:15;;;;;;;0.10;0.10;;;;;;;21.55;70.87;100102.22;4888020;29;20051;-75
2021/07/10 01:15:42;;;;;;;0.10;0.10;;;;;;;21.51;70.81;100096.28;4889329;29;20501;-74
2021/07/10 01:18:08;;;;;;;0.10;0.10;;;;;;;21.50;70.85;100099.22;4902294;29;20080;-76
2021/07/10 01:20:44;;;;;;;0.10;0.10;;;;;;;21.50;70.84;100101.97;4869670;29;20041;-75
2021/07/10 01:23:09;;;;;;;0.17;0.17;;;;;;;21.53;70.61;100107.91;4884735;29;20490;-74
2021/07/10 01:25:35;;;;;;;0.10;0.10;;;;;;;21.56;70.85;100101.16;4886107;29;20068;-75
2021/07/10 01:28:01;;;;;;;0.10;0.10;;;;;;;21.55;70.73;100099.47;4889186;29;20076;-75
2021/07/10 01:30:27;;;;;;;0.10;0.10;;;;;;;21.53;71.08;100099.66;4858948;29;20041;-76
2021/07/10 01:32:54;;;;;;;0.10;0.10;;;;;;;21.56;70.56;100106.66;4885154;29;20092;-74
2021/07/10 01:35:20;;;;;;;0.10;0.10;;;;;;;21.57;70.70;100100.94;4866507;29;20037;-75
2021/07/10 01:37:46;;;;;;;0.10;0.10;;;;;;;21.62;70.21;100106.66;4890900;29;20541;-74
2021/07/10 01:40:15;;;;;;;0.10;0.10;;;;;;;21.60;70.73;100102.41;4889742;29;20085;-75
2021/07/10 01:42:41;;;;;;;0.10;0.10;;;;;;;21.62;70.37;100098.41;4890771;29;20044;-74
2021/07/10 01:45:07;;;;;;;0.10;0.10;;;;;;;21.61;70.57;100098.59;4889910;29;20053;-75
2021/07/10 01:47:33;;;;;;;0.20;0.20;;;;;;;21.66;70.72;100102.41;4898921;29;20045;-76
2021/07/10 01:49:59;;;;;;;0.10;0.10;;;;;;;21.71;70.16;100104.50;4890079;29;20032;-75
2021/07/10 01:52:25;;;;;;;0.38;0.20;;;;;;;21.77;70.25;100106.44;4890626;29;20089;-75
2021/07/10 01:54:51;;;;;;;0.10;0.10;;;;;;;21.82;69.94;100106.63;4888130;29;20052;-75
2021/07/10 01:57:18;;;;;;;0.10;0.10;;;;;;;21.89;69.50;100103.88;4889158;29;20052;-75
2021/07/10 01:59:44;;;;;;;0.10;0.10;;;;;;;22.00;69.47;100102.38;4867281;29;20079;-74
2021/07/10 02:02:09;;;;;;;0.10;0.10;;;;;;;22.09;68.95;100095.59;4889615;29;20544;-75
2021/07/10 02:04:49;;;;;;;0.13;0.13;;;;;;;22.19;68.91;100093.22;4903823;29;20036;-76
2021/07/10 02:07:16;;;;;;;0.25;0.20;;;;;;;22.33;68.42;100100.41;4890648;29;20044;-75
2021/07/10 02:09:42;;;;;;;0.10;0.10;;;;;;;22.44;67.95;100092.53;4888222;29;20060;-74
2021/07/10 02:12:10;;;;;;;1.15;0.55;;;;;;;22.49;67.35;100095.50;4885104;29;20045;-76
2021/07/10 02:14:36;;;;;;;0.10;0.10;;;;;;;22.55;67.62;100100.09;4871691;29;20059;-74
2021/07/10 02:17:03;;;;;;;0.20;0.20;;;;;;;22.61;67.67;100099.25;4883987;29;20527;-77
2021/07/10 02:19:28;;;;;;;0.10;0.10;;;;;;;22.63;65.11;100091.59;4892315;29;20053;-74
2021/07/10 02:21:54;;;;;;;0.13;0.13;;;;;;;22.67;64.80;100098.38;4892153;29;20072;-76
2021/07/10 02:24:20;;;;;;;0.10;0.10;;;;;;;22.73;64.54;100096.63;4892115;29;20413;-77
2021/07/10 02:26:46;;;;;;;0.30;0.13;;;;;;;22.83;63.77;100097.84;4890950;29;20048;-76
2021/07/10 02:29:13;;;;;;;0.10;0.10;;;;;;;22.93;65.42;100102.09;4891052;29;20057;-74
2021/07/10 02:31:39;;;;;;;0.10;0.10;;;;;;;23.01;65.32;100094.41;4889174;29;20055;-75
2021/07/10 02:34:05;;;;;;;0.10;0.10;;;;;;;23.06;63.82;100085.44;4894734;29;20164;-75
2021/07/10 02:36:31;;;;;;;0.10;0.10;;;;;;;23.04;62.58;100093.94;4878332;29;20048;-75
2021/07/10 02:38:58;;;;;;;0.10;0.10;;;;;;;23.08;62.35;100094.34;4885109;29;20115;-75
2021/07/10 02:41:24;;;;;;;0.63;0.20;;;;;;;23.14;62.03;100081.56;4886434;29;20100;-73
2021/07/10 02:43:50;;;;;;;0.10;0.10;;;;;;;23.19;61.21;100093.66;4891137;29;20056;-75
2021/07/10 02:46:17;;;;;;;0.20;0.10;;;;;;;23.15;61.45;100084.13;4891326;29;20044;-75
2021/07/10 02:48:46;;;;;;;0.10;0.10;;;;;;;23.16;61.79;100085.81;4898989;29;20495;-76
2021/07/10 02:51:12;;;;;;;0.10;0.10;;;;;;;23.12;61.78;100084.56;4891540;29;20045;-76
2021/07/10 02:53:38;;;;;;;0.20;0.10;;;;;;;23.14;62.10;100082.41;4891676;29;20052;-75
2021/07/10 02:56:04;;;;;;;0.10;0.10;;;;;;;23.12;62.22;100083.72;4894012;29;20055;-75
2021/07/10 02:58:30;;;;;;;0.10;0.10;;;;;;;23.14;61.76;100082.41;4904105;29;20570;-74
2021/07/10 03:00:55;;;;;;;0.10;0.10;;;;;;;23.08;62.27;100073.13;4893141;29;20037;-75
2021/07/10 03:03:22;;;;;;;0.10;0.10;;;;;;;23.13;61.98;100080.72;4888533;29;20045;-75
2021/07/10 03:05:48;;;;;;;0.10;0.10;;;;;;;23.14;62.10;100081.56;4856995;29;20064;-75
2021/07/10 03:08:14;;;;;;;0.10;0.10;;;;;;;23.12;62.27;100076.28;4892777;29;20059;-75
2021/07/10 03:10:42;;;;;;;0.20;0.20;;;;;;;23.07;62.01;100074.22;4890571;29;20052;-76
2021/07/10 03:13:08;;;;;;;0.20;0.20;;;;;;;23.05;62.60;100072.72;4892153;29;20589;-75
2021/07/10 03:15:34;;;;;;;0.10;0.10;;;;;;;23.08;62.88;100072.28;4893058;29;20064;-75
2021/07/10 03:18:00;;;;;;;0.10;0.10;;;;;;;23.08;63.73;100066.78;4859103;29;20045;-75
2021/07/10 03:20:27;;;;;;;0.10;0.10;;;;;;;23.18;63.88;100067.13;4890107;29;20037;-76
2021/07/10 03:22:53;;;;;;;0.10;0.10;;;;;;;23.29;63.41;100077.44;4876725;29;20056;-73
2021/07/10 03:25:19;;;;;;;0.10;0.10;;;;;;;23.30;62.31;100073.59;4891752;29;20139;-76
2021/07/10 03:27:46;;;;;;;0.10;0.10;;;;;;;23.25;63.25;100072.56;4892146;29;20162;-75
2021/07/10 03:30:15;;;;;;;0.10;0.10;;;;;;;23.13;63.72;100068.84;4888239;29;20057;-74
2021/07/10 03:32:41;;;;;;;0.10;0.10;;;;;;;23.05;63.91;100061.69;4866515;29;20088;-75
2021/07/10 03:35:12;;;;;;;0.10;0.10;;;;;;;23.15;63.72;100061.22;4890585;29;20119;-75
2021/07/10 03:37:38;;;;;;;0.10;0.10;;;;;;;23.12;63.21;100069.94;4875768;29;20537;-77
2021/07/10 03:40:07;;;;;;;0.10;0.10;;;;;;;23.27;62.80;100071.28;4889751;29;20068;-75
2021/07/10 03:42:33;;;;;;;0.13;0.13;;;;;;;23.27;63.08;100070.44;4889639;29;20089;-76
2021/07/10 03:44:59;;;;;;;0.13;0.10;;;;;;;23.30;62.66;100064.50;4891093;29;20478;-77
2021/07/10 03:47:24;;;;;;;0.10;0.10;;;;;;;23.33;62.84;100070.41;4892456;29;20053;-74
2021/07/10 03:49:50;;;;;;;0.15;0.10;;;;;;;23.34;62.24;100082.28;4893042;29;20479;-77
2021/07/10 03:52:16;;;;;;;0.20;0.20;;;;;;;23.49;62.11;100068.16;4890583;29;20459;-76
2021/07/10 03:54:42;;;;;;;0.20;0.20;;;;;;;23.69;61.74;100068.00;4876070;29;20069;-77
2021/07/10 03:57:08;;;;;;;0.10;0.10;;;;;;;23.67;61.43;100065.47;4890396;29;20053;-77
2021/07/10 03:59:34;;;;;;;0.10;0.10;;;;;;;23.62;62.05;100068.03;4884415;29;20041;-77
2021/07/10 04:01:59;;;;;;;0.10;0.10;;;;;;;23.61;62.23;100071.00;4890710;29;20096;-75
2021/07/10 04:04:25;;;;;;;0.20;0.10;;;;;;;23.65;61.83;100067.56;4887407;29;20040;-76
2021/07/10 04:06:51;;;;;;;0.38;0.10;;;;;;;23.72;62.05;100062.84;4885846;29;20044;-75
2021/07/10 04:09:17;;;;;;;0.10;0.10;;;;;;;23.74;61.85;100063.50;4892154;29;20418;-75
2021/07/10 04:11:43;;;;;;;0.10;0.10;;;;;;;23.79;62.31;100062.81;4888810;29;20060;-76
2021/07/10 04:14:09;;;;;;;0.52;0.20;;;;;;;24.01;61.72;100054.91;4865227;29;20056;-77
2021/07/10 04:16:35;;;;;;;0.20;0.20;;;;;;;24.36;60.84;100063.44;4891026;29;20045;-76
2021/07/10 04:19:01;;;;;;;0.30;0.30;;;;;;;24.90;59.64;100058.06;4890403;29;20071;-78
2021/07/10 04:21:27;;;;;;;0.10;0.10;;;;;;;25.24;58.57;100065.66;4891396;29;20530;-74
2021/07/10 04:23:53;;;;;;;0.10;0.10;;;;;;;25.13;58.58;100058.19;4906432;29;20139;-76
2021/07/10 04:26:18;;;;;;;0.10;0.10;;;;;;;25.10;59.03;100064.19;4889524;29;20079;-76
2021/07/10 04:28:44;;;;;;;0.10;0.10;;;;;;;25.01;58.67;100060.00;4889051;29;20122;-75
2021/07/10 04:31:10;;;;;;;0.10;0.10;;;;;;;25.09;59.08;100068.00;4885877;29;20041;-75
2021/07/10 04:33:37;;;;;;;0.15;0.10;;;;;;;25.23;58.71;100052.91;4888461;29;20045;-76
2021/07/10 04:36:03;;;;;;;0.35;0.20;;;;;;;25.29;58.59;100050.25;4889192;29;20120;-77
2021/07/10 04:38:29;;;;;;;0.10;0.10;;;;;;;25.45;57.77;100057.88;4892615;29;20045;-76
2021/07/10 04:40:55;;;;;;;0.20;0.20;;;;;;;25.55;57.01;100049.81;4892645;29;20060;-76
2021/07/10 04:43:20;;;;;;;0.20;0.20;;;;;;;25.70;57.00;100052.94;4884137;29;20061;-75
2021/07/10 04:45:46;;;;;;;0.10;0.10;;;;;;;25.92;54.98;100057.91;4880375;29;20586;-77
2021/07/10 04:48:12;;;;;;;0.20;0.20;;;;;;;26.20;54.69;100046.91;4890196;29;20056;-76
2021/07/10 04:50:38;;;;;;;0.38;0.38;;;;;;;26.61;53.08;100053.31;4892734;29;20555;-77
2021/07/10 04:53:04;;;;;;;0.10;0.10;;;;;;;26.73;51.30;100056.06;4888987;29;20044;-79
2021/07/10 04:55:30;;;;;;;0.13;0.10;;;;;;;26.87;50.25;100056.59;4874472;29;20046;-77
2021/07/10 04:57:56;;;;;;;0.40;0.40;;;;;;;27.77;47.34;100055.72;4889924;29;20044;-78
2021/07/10 05:00:24;;;;;;;0.40;0.40;;;;;;;28.59;45.01;100052.13;4891944;29;20045;-78
2021/07/10 05:02:50;;;;;;;0.15;0.15;;;;;;;28.86;43.68;100051.31;4890860;29;20056;-76
2021/07/10 05:05:16;;;;;;;0.10;0.10;;;;;;;28.77;44.66;100058.44;4882255;29;20044;-79
2021/07/10 05:07:43;;;;;;;0.10;0.10;;;;;;;28.56;43.92;100047.09;4907266;29;20087;-81
2021/07/10 05:10:10;;;;;;;0.40;0.40;;;;;;;28.78;43.78;100049.00;4893540;29;20056;-75
2021/07/10 05:12:36;;;;;;;0.43;0.43;;;;;;;29.29;43.45;100046.75;4882138;29;20037;-80
2021/07/10 05:15:02;;;;;;;0.40;0.40;;;;;;;29.95;42.11;100050.06;4890747;29;20128;-80
2021/07/10 05:17:30;;;;;;;0.40;0.40;;;;;;;30.51;40.26;100041.16;4877971;29;20199;-80
2021/07/10 05:19:56;;;;;;;0.38;0.38;;;;;;;30.98;39.63;100043.81;4878629;29;20067;-79
2021/07/10 05:22:22;;;;;;;0.35;0.35;;;;;;;31.37;38.53;100051.72;4884228;29;20064;-78
2021/07/10 05:24:48;;;;;;;0.35;0.35;;;;;;;31.59;38.61;100043.06;4892714;29;20037;-76
2021/07/10 05:27:13;;;;;;;0.80;0.47;;;;;;;32.00;38.02;100050.56;4890123;29;20048;-78
2021/07/10 05:29:39;;;;;;;0.40;0.40;;;;;;;32.30;37.51;100044.88;4891652;29;20040;-79
2021/07/10 05:32:06;;;;;;;0.40;0.40;;;;;;;32.69;36.63;100044.16;4883054;29;20199;-79
2021/07/10 05:34:32;;;;;;;0.10;0.10;;;;;;;32.57;37.87;100040.84;4888217;29;20067;-78
2021/07/10 05:36:58;;;;;;;0.10;0.10;;;;;;;31.98;37.62;100033.22;4874446;29;20049;-75
2021/07/10 05:39:24;;;;;;;0.50;0.50;;;;;;;32.62;37.04;100026.84;4890238;29;20120;-82
2021/07/10 05:41:50;;;;;;;0.60;0.60;;;;;;;33.05;36.53;100032.75;4866045;29;20041;-80
2021/07/10 05:44:16;;;;;;;0.60;0.60;;;;;;;33.79;35.65;100034.41;4891572;29;20056;-79
2021/07/10 05:46:42;;;;;;;0.30;0.30;;;;;;;33.65;35.15;100033.41;4877180;29;20053;-79
2021/07/10 05:49:09;;;;;;;0.50;0.50;;;;;;;34.10;34.38;100031.28;4892734;29;20056;-82
2021/07/10 05:51:35;;;;;;;0.60;0.60;;;;;;;34.44;34.00;100021.88;4889765;29;20078;-79
2021/07/10 05:54:01;;;;;;;0.55;0.55;;;;;;;34.86;33.38;100034.25;4890899;29;20128;-81
2021/07/10 05:56:27;;;;;;;0.60;0.60;;;;;;;35.32;32.68;100028.75;4895576;29;20048;-80
2021/07/10 05:58:53;;;;;;;0.20;0.20;;;;;;;35.14;32.43;100040.88;4897282;29;20044;-79
2021/07/10 06:01:19;;;;;;;0.40;0.40;;;;;;;34.84;32.73;100030.91;4895189;29;20040;-79
2021/07/10 06:03:46;;;;;;;0.50;0.50;;;;;;;35.63;31.93;100031.91;4896813;29;20051;-81
2021/07/10 06:06:12;;;;;;;0.25;0.25;;;;;;;34.53;32.98;100036.97;4892902;29;20211;-81
2021/07/10 06:08:38;;;;;;;0.20;0.20;;;;;;;34.02;33.44;100032.78;4874924;29;20491;-78
2021/07/10 06:11:03;;;;;;;0.28;0.28;;;;;;;34.06;33.72;100021.78;4892348;29;20044;-77
2021/07/10 06:13:29;;;;;;;0.10;0.10;;;;;;;33.74;34.36;100037.22;4895803;29;20144;-78
2021/07/10 06:15:55;;;;;;;0.10;0.10;;;;;;;33.46;35.16;100032.41;4893771;29;20143;-77
2021/07/10 06:18:21;;;;;;;0.20;0.20;;;;;;;32.85;35.34;100034.53;4895297;29;20422;-76
2021/07/10 06:20:48;;;;;;;0.20;0.20;;;;;;;32.65;35.74;100023.44;4894593;29;20148;-80
2021/07/10 06:23:14;;;;;;;0.10;0.10;;;;;;;33.00;35.84;100027.19;4886202;29;20048;-77
2021/07/10 06:25:40;;;;;;;0.10;0.10;;;;;;;32.74;35.84;100030.13;4892824;29;20048;-78
2021/07/10 06:28:07;;;;;;;0.20;0.20;;;;;;;32.61;36.79;100025.97;4885724;29;20048;-76
2021/07/10 06:30:34;;;;;;;0.70;0.70;;;;;;;33.60;35.29;100033.44;4893639;29;20056;-77
2021/07/10 06:33:00;;;;;;;0.70;0.70;;;;;;;34.96;32.93;100034.09;4891293;29;20049;-78
2021/07/10 06:35:26;;;;;;;0.55;0.55;;;;;;;35.51;32.03;100023.16;4895340;29;20055;-77
2021/07/10 06:37:52;;;;;;;0.60;0.60;;;;;;;36.08;30.87;100020.94;4893048;29;20490;-78
2021/07/10 06:40:19;;;;;;;0.57;0.57;;;;;;;36.59;31.06;100019.91;4861260;29;20029;-79
2021/07/10 06:42:45;;;;;;;0.60;0.60;;;;;;;36.48;30.57;100020.44;4892423;29;20534;-78
2021/07/10 06:45:13;;;;;;;0.60;0.60;;;;;;;37.17;30.38;100023.94;4857517;29;20052;-76
2021/07/10 06:47:40;;;;;;;0.70;0.70;;;;;;;37.39;29.62;100020.28;4891073;29;20067;-77
2021/07/10 06:50:08;;;;;;;0.70;0.70;;;;;;;37.79;28.39;100026.03;4890606;29;20123;-78
2021/07/10 06:52:35;;;;;;;0.60;0.60;;;;;;;38.46;27.61;100025.84;4875427;29;20045;-78
2021/07/10 06:55:02;;;;;;;0.60;0.60;;;;;;;38.56;27.41;100014.25;4883822;29;20138;-77
2021/07/10 06:57:28;;;;;;;0.60;0.60;;;;;;;38.98;27.52;100009.00;4885016;29;20053;-78
2021/07/10 06:59:54;;;;;;;0.60;0.60;;;;;;;38.78;27.34;100020.91;4885403;29;20052;-80
2021/07/10 07:02:20;;;;;;;0.70;0.70;;;;;;;38.76;27.47;100020.41;4864475;29;20048;-78
2021/07/10 07:04:47;;;;;;;0.60;0.60;;;;;;;39.57;26.43;100018.91;4899956;29;20048;-77
2021/07/10 07:07:13;;;;;;;0.60;0.60;;;;;;;39.88;25.47;100007.38;4858509;29;20135;-78
2021/07/10 07:09:41;;;;;;;0.65;0.65;;;;;;;39.26;25.55;100014.31;4892587;29;20057;-78
2021/07/10 07:12:07;;;;;;;0.70;0.70;;;;;;;39.98;25.31;100018.34;4891463;29;20080;-80
2021/07/10 07:14:33;;;;;;;0.70;0.70;;;;;;;40.47;24.32;100013.09;4882986;29;20037;-80
2021/07/10 07:16:59;;;;;;;0.70;0.70;;;;;;;40.86;23.26;100013.88;4897600;29;20048;-82
2021/07/10 07:19:27;;;;;;;0.60;0.60;;;;;;;40.57;23.93;100004.25;4880510;29;20041;-81
2021/07/10 07:21:54;;;;;;;0.80;0.80;;;;;;;41.33;22.95;100010.81;4892918;29;20048;-83
2021/07/10 07:24:20;;;;;;;0.70;0.70;;;;;;;40.76;23.33;100005.78;4889185;29;20048;-80
2021/07/10 07:26:47;;;;;;;0.70;0.70;;;;;;;40.87;23.52;100013.50;4863726;29;20052;-79
2021/07/10 07:29:13;;;;;;;0.60;0.60;;;;;;;40.89;23.06;100014.00;4899396;29;20407;-78
2021/07/10 07:31:39;;;;;;;0.85;0.80;;;;;;;41.16;22.78;100012.63;4897015;29;20048;-79
2021/07/10 07:34:05;;;;;;;0.60;0.60;;;;;;;41.64;21.92;100021.69;4896884;29;20052;-79
2021/07/10 07:36:31;;;;;;;0.70;0.70;;;;;;;41.54;21.97;100022.13;4905146;29;20394;-79
2021/07/10 07:38:58;;;;;;;0.65;0.65;;;;;;;41.22;22.75;100013.25;4898868;29;20044;-79
2021/07/10 07:41:24;;;;;;;0.70;0.70;;;;;;;42.11;22.27;100021.31;4888337;29;20514;-80
2021/07/10 07:43:50;;;;;;;0.80;0.80;;;;;;;42.19;21.57;100023.22;4907424;29;20066;-79
2021/07/10 07:46:16;;;;;;;0.70;0.70;;;;;;;42.24;21.91;100011.63;4895830;29;20048;-80
2021/07/10 07:48:43;;;;;;;0.95;0.95;;;;;;;42.42;21.87;100019.91;4890311;29;20093;-81
2021/07/10 07:51:11;;;;;;;0.80;0.80;;;;;;;42.67;21.08;100018.72;4872585;29;20115;-80
2021/07/10 07:53:38;;;;;;;0.60;0.60;;;;;;;42.49;21.36;100017.31;4891519;29;20048;-81
2021/07/10 07:56:04;;;;;;;0.63;0.63;;;;;;;42.83;20.82;100016.00;4893834;29;20048;-79
2021/07/10 07:58:30;;;;;;;0.40;0.40;;;;;;;41.89;22.41;100012.06;4879856;29;20117;-82
2021/07/10 08:00:57;;;;;;;0.90;0.90;;;;;;;42.81;21.11;100002.09;4890658;29;20045;-82
2021/07/10 08:03:23;;;;;;;0.82;0.82;;;;;;;42.79;20.70;100010.19;4891449;29;20036;-80
2021/07/10 08:05:50;;;;;;;1.00;1.00;;;;;;;43.14;20.32;100003.09;4878632;29;20052;-82
2021/07/10 08:08:15;;;;;;;0.40;0.20;;;;;;;41.50;21.91;99995.63;4874719;29;20048;-81
2021/07/10 08:10:41;;;;;;;0.90;0.90;;;;;;;41.17;22.67;99985.91;4876491;29;20091;-78
2021/07/10 08:13:07;;;;;;;1.10;1.10;;;;;;;42.19;21.77;99986.28;4889608;29;20101;-80
2021/07/10 08:15:33;;;;;;;1.08;1.08;;;;;;;43.04;20.70;99988.19;4902612;29;20180;-80
2021/07/10 08:18:00;;;;;;;0.55;0.55;;;;;;;43.00;20.86;99977.88;4893743;29;20098;-82
2021/07/10 08:20:26;;;;;;;0.63;0.10;;;;;;;40.94;22.61;99981.75;4893049;29;20116;-80
2021/07/10 08:22:52;;;;;;;1.00;1.00;;;;;;;41.50;22.13;99984.28;4895280;29;20049;-83
2021/07/10 08:25:22;;;;;;;1.10;1.10;;;;;;;42.35;21.17;99990.09;4894572;29;20041;-81
2021/07/10 08:27:49;;;;;;;0.95;0.95;;;;;;;42.92;20.69;99976.00;4893784;29;20147;-80
2021/07/10 08:30:17;;;;;;;0.95;0.95;;;;;;;43.33;20.41;99972.78;4894945;29;20503;-79
2021/07/10 08:32:47;;;;;;;1.10;1.10;;;;;;;43.78;20.12;99977.25;4876752;29;20446;-82
2021/07/10 08:35:15;;;;;;;0.97;0.97;;;;;;;43.98;19.70;99977.38;4906683;29;20554;-79
2021/07/10 08:37:46;;;;;;;0.90;0.90;;;;;;;43.83;19.02;99978.19;4890931;29;20056;-80
2021/07/10 08:40:14;;;;;;;1.00;1.00;;;;;;;44.77;18.43;99982.16;4884464;29;20178;-81
2021/07/10 08:42:40;;;;;;;0.10;0.10;;;;;;;43.32;19.52;99982.50;4877199;29;20044;-81
2021/07/10 08:45:15;;;;;;;2.80;1.30;;;;;;;41.98;20.46;99974.19;4891230;29;20144;-83
2021/07/10 08:47:46;;;;;;;0.90;0.90;;;;;;;42.78;20.07;99968.69;4871176;29;20120;-80
2021/07/10 08:50:17;;;;;;;1.00;1.00;;;;;;;43.06;19.94;99979.28;4862965;29;20092;-82
2021/07/10 08:52:44;;;;;;;0.80;0.80;;;;;;;43.71;19.32;99977.06;4876528;29;20048;-81
2021/07/10 08:55:19;;;;;;;0.82;0.82;;;;;;;44.17;18.86;99968.88;4903844;29;20107;-81
2021/07/10 08:57:49;;;;;;;0.80;0.80;;;;;;;44.14;19.07;99961.09;4889974;29;20048;-82
2021/07/10 09:00:21;;;;;;;0.90;0.90;;;;;;;44.05;19.35;99963.28;4875998;29;20127;-79
2021/07/10 09:02:52;;;;;;;0.95;0.85;;;;;;;43.65;19.20;99961.44;4868740;29;20305;-79
2021/07/10 09:05:18;;;;;;;1.00;1.00;;;;;;;43.97;19.36;99964.31;4876100;29;20101;-81
2021/07/10 09:08:25;;;;;;;0.80;0.80;;;;;;;43.81;19.08;99953.75;4876563;29;20059;-81
2021/07/10 09:11:20;;;;;;;0.90;0.90;;;;;;;44.62;19.04;99953.25;4878995;29;20487;-82
2021/07/10 09:13:52;;;;;;;0.90;0.90;;;;;;;45.12;18.03;99948.66;4901579;29;20149;-79
2021/07/10 09:16:29;;;;;;;0.43;0.43;;;;;;;44.79;18.39;99951.19;4881694;29;20044;-81
2021/07/10 09:19:05;;;;;;;0.10;0.10;;;;;;;43.16;19.80;99946.66;4873800;29;20080;-80
2021/07/10 09:21:51;;;;;;;0.10;0.10;;;;;;;41.30;22.09;99949.91;4869487;29;20041;-80
2021/07/10 09:24:25;;;;;;;0.10;0.10;;;;;;;40.34;22.67;99944.19;4886696;29;20056;-82
2021/07/10 09:26:54;;;;;;;0.65;0.20;;;;;;;40.07;23.03;99941.81;4890913;29;20048;-78
2021/07/10 09:29:24;;;;;;;0.10;0.10;;;;;;;39.50;23.46;99940.22;4893799;29;20132;-79
2021/07/10 09:32:06;;;;;;;0.10;0.10;;;;;;;38.94;24.78;99933.63;4880887;29;20052;-82
2021/07/10 09:34:43;;;;;;;0.50;0.47;;;;;;;38.94;25.17;99931.63;4890583;29;20068;-79
2021/07/10 09:37:21;;;;;;;1.10;1.10;;;;;;;40.97;21.47;99933.69;4868843;29;20044;-80
2021/07/10 09:39:58;;;;;;;0.90;0.90;;;;;;;42.14;20.07;99938.22;4898343;29;20049;-78
2021/07/10 09:42:48;;;;;;;1.45;1.30;;;;;;;42.99;19.00;99930.69;4900406;29;20040;-79
2021/07/10 09:45:21;;;;;;;1.15;1.05;;;;;;;43.91;18.68;99931.59;4888226;29;20100;-80
2021/07/10 09:47:47;;;;;;;0.90;0.90;;;;;;;43.99;17.62;99922.00;4900780;29;20052;-80
2021/07/10 09:50:33;;;;;;;0.45;0.45;;;;;;;43.05;19.20;99921.53;4902874;29;20121;-78
2021/07/10 09:53:00;;;;;;;1.13;1.02;;;;;;;42.73;19.95;99931.16;4876427;29;20481;-77
2021/07/10 09:55:28;;;;;;;0.80;0.80;;;;;;;43.56;19.00;99929.47;4902652;29;20467;-78
2021/07/10 09:57:58;;;;;;;0.70;0.70;;;;;;;44.24;18.18;99932.00;4884658;29;20107;-80
2021/07/10 10:00:25;;;;;;;0.90;0.90;;;;;;;44.67;18.24;99913.06;4892392;29;20055;-81
2021/07/10 10:02:53;;;;;;;0.70;0.70;;;;;;;44.35;17.68;99909.47;4894366;29;20071;-83
2021/07/10 10:05:30;;;;;;;0.73;0.73;;;;;;;45.10;17.67;99908.25;4889283;29;20139;-83
2021/07/10 10:08:00;;;;;;;0.80;0.80;;;;;;;44.43;18.38;99913.28;4877365;29;20049;-80
2021/07/10 10:10:27;;;;;;;0.85;0.85;;;;;;;45.12;17.82;99908.69;4889243;29;20048;-79
2021/07/10 10:13:08;;;;;;;0.82;0.82;;;;;;;45.43;17.17;99918.25;4890925;29;20145;-80
2021/07/10 10:15:44;;;;;;;0.70;0.70;;;;;;;45.06;17.78;99901.66;4891961;29;20120;-82
2021/07/10 10:18:14;;;;;;;0.10;0.10;;;;;;;42.96;19.01;99908.66;4897590;29;20108;-82
2021/07/10 10:20:41;;;;;;;0.40;0.30;;;;;;;41.61;20.58;99903.13;4891797;29;20545;-79
2021/07/10 10:23:07;;;;;;;0.10;0.10;;;;;;;41.04;21.21;99892.59;4860640;29;20082;-82
2021/07/10 10:25:37;;;;;;;0.43;0.22;;;;;;;40.26;21.93;99896.88;4893073;29;20635;-78
2021/07/10 10:28:05;;;;;;;0.10;0.10;;;;;;;39.87;22.55;99890.44;4869642;29;20060;-79
2021/07/10 10:30:31;;;;;;;0.95;0.95;;;;;;;40.22;22.19;99893.09;4895928;29;20049;-79
2021/07/10 10:32:58;;;;;;;0.85;0.85;;;;;;;41.66;20.45;99894.41;4893827;29;20117;-81
2021/07/10 10:35:24;;;;;;;0.25;0.20;;;;;;;41.10;21.31;99894.88;4894120;29;20036;-80
2021/07/10 10:37:51;;;;;;;0.25;0.20;;;;;;;40.53;21.34;99872.03;4888058;29;20133;-81
2021/07/10 10:40:23;;;;;;;0.10;0.10;;;;;;;40.06;22.38;99884.34;4872444;29;20048;-82
2021/07/10 10:42:55;;;;;;;0.20;0.20;;;;;;;40.46;21.48;99881.91;4890914;29;20133;-79
2021/07/10 10:45:32;;;;;;;0.10;0.10;;;;;;;40.07;22.04;99885.16;4894880;29;20046;-80
2021/07/10 10:47:59;;;;;;;0.40;0.40;;;;;;;40.49;21.36;99880.38;4891893;29;20048;-82
2021/07/10 10:50:34;;;;;;;0.50;0.32;;;;;;;40.52;21.56;99878.84;4879097;29;20087;-81
2021/07/10 10:53:02;;;;;;;0.35;0.35;;;;;;;40.14;22.14;99877.81;4871944;29;20064;-80
2021/07/10 10:55:31;;;;;;;0.20;0.20;;;;;;;39.67;22.55;99882.69;4863935;29;20088;-80
2021/07/10 10:58:18;;;;;;;0.60;0.30;;;;;;;39.30;22.67;99885.19;4890193;29;20063;-81
2021/07/10 11:00:49;;;;;;;0.10;0.10;;;;;;;39.01;23.32;99883.88;4885297;29;20097;-80
2021/07/10 11:03:19;;;;;;;0.35;0.20;;;;;;;38.87;24.11;99876.75;4893160;29;20116;-82
2021/07/10 11:05:50;;;;;;;0.40;0.30;;;;;;;38.89;23.92;99886.56;4891213;29;20048;-82
2021/07/10 11:08:22;;;;;;;0.10;0.10;;;;;;;39.13;24.07;99880.38;4902218;29;20363;-79
2021/07/10 11:10:58;;;;;;;0.13;0.13;;;;;;;39.20;25.62;99871.34;4893068;29;20044;-81
2021/07/10 11:13:32;;;;;;;0.35;0.35;;;;;;;39.28;25.31;99873.38;4894034;29;20073;-79
2021/07/10 11:16:07;;;;;;;0.77;0.77;;;;;;;40.50;22.81;99876.38;4891802;29;20547;-80
2021/07/10 11:18:56;;;;;;;0.70;0.70;;;;;;;40.97;22.18;99874.09;4886083;29;20075;-81
2021/07/10 11:21:48;;;;;;;0.80;0.80;;;;;;;41.04;21.68;99876.41;4911813;29;20044;-79
2021/07/10 11:24:20;;;;;;;0.70;0.70;;;;;;;41.64;22.13;99862.69;4858166;29;20084;-79
2021/07/10 11:26:55;;;;;;;0.70;0.70;;;;;;;41.25;21.17;99861.31;4868961;29;20048;-79
2021/07/10 11:29:24;;;;;;;0.70;0.70;;;;;;;41.59;20.68;99860.09;4896907;29;20083;-80
2021/07/10 11:31:52;;;;;;;0.70;0.70;;;;;;;42.38;20.59;99852.94;4876360;29;20072;-81